Edwardsville, Alabama
Current Conditions -  °F | °C
As of 12:35 PM on Sunday 21 Dec 2014 (Local Time) from KCTJ Reporting Station
Haze Haze  
Wind Chill:   Ceiling: 600
Heat Index:   Visibility: 4mi
Dew Point:   Wind: 5mph
Humidity: 93%   Direction: 120°ESE
Pressure: 30.15"   Gusts: NA
Location:  33.71°N, 85.51°W
Report Text: KCTJ 211835Z AUTO 12004KT 4SM BR OVC006 09/08 A3015 RMK AO2
Loading
Personal Weather Stations






























Interactive Weather Map New forecast layout! Learn more

10-Day Weather Forecast

Advertisements
Track Severe Weather on mobile